< Cyclone 197312 1973 Season Cyclone 197315 >
Cyclone 197314 (MARCELLE)
General InformationTrack Information on Google MapsDetailed Wind Information || ResourceGoogle EarthGE AnimationAtom FeedGeoJSON
Detalied Best Track (Time Zone = UTC)
Year Month Day Hour Lat. Long. Pressure (hPa) Wind (kt) Class Image Chart
1973 4 29 00 -8.7 87.2 1001 25 2 -- --
1973 4 29 03 -8.7 86.9 1000 25 2 -- --
1973 4 29 06 -8.7 86.5 999 25 2 -- --
1973 4 29 09 -8.7 86.2 997 30 2 -- --
1973 4 29 12 -8.7 85.8 996 30 2 -- --
1973 4 29 15 -8.7 85.4 995 35 3 -- --
1973 4 29 18 -8.7 85.0 994 35 3 -- --
1973 4 29 21 -8.7 84.6 993 40 3 -- --
1973 4 30 00 -8.7 84.2 992 40 3 -- --
1973 4 30 03 -8.7 83.8 992 40 3 -- --
1973 4 30 06 -8.7 83.5 991 45 3 -- --
1973 4 30 09 -8.7 83.1 989 50 4 -- --
1973 4 30 12 -8.7 82.8 988 50 4 -- --
1973 4 30 15 -8.7 82.4 987 50 4 -- --
1973 4 30 18 -8.7 82.1 986 50 4 -- --
1973 4 30 21 -8.7 81.7 985 50 4 -- --
1973 5 1 00 -8.7 81.4 983 55 4 -- --
1973 5 1 03 -8.8 81.1 982 55 4 -- --
1973 5 1 06 -8.8 80.8 981 55 4 -- --
1973 5 1 09 -8.8 80.5 980 60 4 -- --
1973 5 1 12 -9.0 80.2 979 60 4 -- --
1973 5 1 15 -9.2 79.9 978 60 4 -- --
1973 5 1 18 -9.4 79.6 977 65 5 -- --
1973 5 1 21 -9.6 79.3 975 65 5 -- --
1973 5 2 00 -9.9 79.0 974 65 5 -- --
1973 5 2 03 -10.1 79.0 973 70 5 -- --
1973 5 2 06 -10.3 79.1 973 70 5 -- --
1973 5 2 09 -10.5 79.1 973 70 5 -- --
1973 5 2 12 -10.7 79.1 973 70 5 -- --
1973 5 2 15 -10.9 79.2 973 70 5 -- --
1973 5 2 18 -11.1 79.2 973 70 5 -- --
1973 5 2 21 -11.3 79.3 973 70 5 -- --
1973 5 3 00 -11.6 79.3 973 70 5 -- --
1973 5 3 03 -12.3 79.5 973 70 5 -- --
1973 5 3 06 -12.9 79.6 974 70 5 -- --
1973 5 3 09 -13.6 79.8 975 65 5 -- --
1973 5 3 12 -14.2 79.9 976 65 5 -- --
1973 5 3 15 -14.9 80.1 978 60 4 -- --
1973 5 3 18 -15.5 80.2 979 60 4 -- --
1973 5 3 21 -16.2 80.4 980 60 4 -- --
1973 5 4 00 -16.9 80.6 981 55 4 -- --
1973 5 4 03 -17.7 80.8 982 55 4 -- --
1973 5 4 06 -18.4 81.1 983 55 4 -- --
1973 5 4 09 -19.2 81.3 984 55 4 -- --
1973 5 4 12 -19.9 81.5 986 55 4 -- --
1973 5 4 15 -20.7 81.8 987 50 4 -- --
1973 5 4 18 -21.4 82.0 989 50 4 -- --
1973 5 4 21 -22.2 82.2 990 45 3 -- --
1973 5 5 00 -22.9 82.4 991 40 3 -- --
1973 5 5 03 -23.6 82.7 992 35 3 -- --
1973 5 5 06 -24.3 83.0 993 35 3 -- --
1973 5 5 09 -25.0 83.4 994 35 3 -- --
1973 5 5 12 -25.7 83.8 996 30 2 -- --
1973 5 5 15 -26.3 84.2 997 30 2 -- --
1973 5 5 18 -27.0 84.6 998 30 2 -- --
1973 5 5 21 -27.6 85.0 999 30 2 -- --
1973 5 6 00 -28.3 85.4 1000 30 2 -- --
1973 5 6 03 -29.5 87.0 1001 25 2 -- --
1973 5 6 06 -30.7 88.4 1001 30 2 -- --
1973 5 6 09 -31.3 90.0 1001 30 2 -- --
1973 5 6 12 -31.9 91.8 1001 35 3 -- --
1973 5 6 15 -32.3 93.6 1001 35 3 -- --
1973 5 6 18 -32.6 95.6 1001 40 3 -- --
1973 5 6 21 -32.9 97.9 1000 40 3 -- --
1973 5 7 00 -32.2 100.4 1000 45 3 -- --
1973 5 7 03 -32.4 102.5 1000 45 3 -- --
1973 5 7 06 -32.6 104.6 996 50 4 -- --
1973 5 7 09 -32.8 106.7 990 55 4 -- --
1973 5 7 12 -33.0 108.8 988 60 4 -- --
1973 5 7 15 -33.2 110.8 984 60 4 -- --
1973 5 7 18 -33.4 112.8 980 60 4 -- --
1973 5 7 21 -33.6 114.8 976 60 4 -- --
1973 5 8 00 -33.7 117.4 984 60 4 -- --
1973 5 8 03 -34.2 118.4 987 55 4 -- --
1973 5 8 06 -34.6 119.4 987 50 4 -- --
1973 5 8 09 -35.6 121.0 984 50 4 -- --
1973 5 8 12 -37.3 122.8 981 50 4 -- --
1973 5 8 15 -39.7 124.1 978 50 4 -- --
1973 5 8 18 -42.1 125.5 976 50 4 -- --
1973 5 8 21 -44.5 126.9 974 50 4 -- --
1973 5 9 00 -46.8 128.3 972 50 4 -- --
< Cyclone 197312 1973 Season Cyclone 197315 >

Help